« Back
NWS Peachtree City, Ga » Text Product » AHN Terminal Aerodrome Forecast


Printer-friendly Version
Current Version              Previous Versions:   1  2  3  4  5  6  7  8  9  

Terminal Aerodrome Forecast

033
FTAK31 PAJN 181700 RRA
TAFAHN
TAF
PAHN 181741Z 1818/1918 10012G22KT P6SM -SHRA OVC012
     FM182200 11012G22KT P6SM VCSH SCT035 BKN050 OVC070
     FM190300 10006KT P6SM SCT035 SCT070
     FM190700 VRB05KT P6SM SCT070
     FM191000 31009KT P6SM FEW070
      AMD LTD TO CLD VIS AND WIND=

USA.gov is the U.S. government's official web portal to all federal, state and local government web resources and services.